Time;durP1;ratioP1;P1;durP2;ratioP2;P2;SDS_P1;SDS_P2;PMS_P1;PMS_P2;Temp;Humidity;BMP_temperature;BMP_pressure;BME280_temperature;BME280_humidity;BME280_pressure;Samples;Min_cycle;Max_cycle;Signal;HPM_P1;HPM_P2
2021/07/26 00:01:27;;;;;;;5.93;4.77;;;;;;;15.92;89.09;96167.50;3546336;40;20461;-71
2021/07/26 00:03:55;;;;;;;13.50;5.50;;;;;;;15.86;89.88;96168.09;3551508;40;20455;-73
2021/07/26 00:06:23;;;;;;;9.33;5.60;;;;;;;15.91;89.87;96162.34;3549473;40;20591;-73
2021/07/26 00:08:52;;;;;;;15.77;5.20;;;;;;;15.90;89.64;96158.06;3548464;40;20549;-73
2021/07/26 00:11:20;;;;;;;11.33;5.80;;;;;;;15.91;89.43;96160.53;3546945;40;21449;-73
2021/07/26 00:13:48;;;;;;;11.40;4.97;;;;;;;15.91;89.25;96163.19;3547509;40;20604;-73
2021/07/26 00:16:16;;;;;;;7.90;4.60;;;;;;;15.94;89.19;96165.53;3550790;40;20929;-71
2021/07/26 00:18:44;;;;;;;9.07;4.70;;;;;;;15.92;89.09;96169.31;3550766;40;20611;-71
2021/07/26 00:21:12;;;;;;;7.20;4.93;;;;;;;15.92;89.06;96167.50;3550591;40;20909;-71
2021/07/26 00:23:40;;;;;;;13.93;5.57;;;;;;;15.87;89.77;96169.75;3551175;40;20543;-72
2021/07/26 00:26:09;;;;;;;7.67;5.00;;;;;;;15.89;89.43;96162.50;3551924;40;20463;-72
2021/07/26 00:28:37;;;;;;;17.87;4.70;;;;;;;15.92;89.23;96169.31;3556523;40;20487;-72
2021/07/26 00:31:05;;;;;;;12.20;4.53;;;;;;;15.85;89.61;96168.25;3551173;40;20581;-74
2021/07/26 00:34:10;;;;;;;9.03;4.10;;;;;;;15.49;89.45;96174.25;3551759;40;20443;-71
2021/07/26 00:36:41;;;;;;;12.10;4.67;;;;;;;15.26;90.79;96165.03;3551685;40;20567;-72
2021/07/26 00:39:10;;;;;;;18.30;6.40;;;;;;;15.30;91.40;96174.31;3554884;40;20584;-72
2021/07/26 00:41:40;;;;;;;13.40;5.97;;;;;;;15.58;92.15;96176.00;3550234;40;20587;-73
2021/07/26 00:44:13;;;;;;;12.00;5.57;;;;;;;15.68;91.97;96180.38;3551393;40;20851;-71
2021/07/26 00:46:42;;;;;;;8.47;4.73;;;;;;;15.64;91.44;96174.56;3548660;40;20769;-71
2021/07/26 00:49:11;;;;;;;12.47;5.77;;;;;;;15.51;91.61;96169.66;3546897;40;20845;-72
2021/07/26 00:51:41;;;;;;;10.87;5.07;;;;;;;15.63;90.38;96173.75;3548475;40;20474;-71
2021/07/26 00:54:10;;;;;;;9.33;5.10;;;;;;;15.66;90.52;96177.06;3550804;40;20844;-71
2021/07/26 00:56:40;;;;;;;9.70;4.50;;;;;;;15.65;90.16;96178.88;3550988;40;20755;-74
2021/07/26 00:59:10;;;;;;;13.30;5.00;;;;;;;15.56;90.59;96187.66;3550394;40;20476;-70
2021/07/26 01:01:39;;;;;;;15.10;5.73;;;;;;;15.53;90.32;96180.88;3550879;40;20592;-71
2021/07/26 01:04:07;;;;;;;10.27;5.20;;;;;;;15.59;90.17;96179.47;3553340;40;20844;-73
2021/07/26 01:06:35;;;;;;;7.33;4.77;;;;;;;15.62;90.61;96181.78;3549517;40;20495;-74
2021/07/26 01:09:04;;;;;;;18.30;5.33;;;;;;;15.60;89.98;96167.91;3551697;40;20984;-73
2021/07/26 01:11:32;;;;;;;17.20;5.10;;;;;;;15.61;89.71;96174.88;3550120;40;20528;-72
2021/07/26 01:14:02;;;;;;;8.63;5.63;;;;;;;15.59;90.11;96177.66;3550753;40;20525;-71
2021/07/26 01:16:30;;;;;;;10.80;5.43;;;;;;;15.62;90.51;96185.28;3553653;40;20566;-73
2021/07/26 01:19:00;;;;;;;8.60;5.60;;;;;;;15.61;90.44;96186.25;3550207;40;20701;-71
2021/07/26 01:21:31;;;;;;;8.17;4.57;;;;;;;15.58;90.47;96191.00;3552477;40;20467;-71
2021/07/26 01:24:02;;;;;;;12.57;5.50;;;;;;;15.56;90.98;96185.88;3550854;40;20774;-73
2021/07/26 01:26:31;;;;;;;8.50;5.43;;;;;;;15.71;91.37;96185.38;3552200;40;20770;-71
2021/07/26 01:29:00;;;;;;;8.07;5.40;;;;;;;15.87;90.96;96180.31;3559467;40;20474;-72
2021/07/26 01:31:29;;;;;;;8.40;6.10;;;;;;;15.91;90.81;96186.94;3550322;40;20459;-73
2021/07/26 01:33:57;;;;;;;13.00;5.97;;;;;;;15.92;90.86;96188.63;3550083;40;20494;-72
2021/07/26 01:36:25;;;;;;;13.50;5.20;;;;;;;15.71;90.50;96182.75;3550332;40;20476;-73
2021/07/26 01:38:55;;;;;;;10.60;5.37;;;;;;;15.74;90.34;96190.38;3550485;40;20990;-72
2021/07/26 01:41:25;;;;;;;10.60;6.03;;;;;;;15.74;90.33;96190.38;3549865;40;20935;-73
2021/07/26 01:44:03;;;;;;;13.80;5.60;;;;;;;15.71;90.53;96191.47;3551784;40;20439;-73
2021/07/26 01:46:58;;;;;;;9.97;5.97;;;;;;;15.70;91.12;96181.06;3549561;40;20732;-72
2021/07/26 01:49:41;;;;;;;7.80;5.30;;;;;;;15.92;90.95;96177.25;3545577;40;20561;-72
2021/07/26 01:52:10;;;;;;;8.90;5.83;;;;;;;15.81;91.02;96180.91;3550652;40;20439;-72
2021/07/26 01:54:39;;;;;;;13.80;6.87;;;;;;;15.60;92.16;96174.06;3551894;40;20476;-72
2021/07/26 01:57:08;;;;;;;8.73;5.20;;;;;;;15.59;92.22;96175.00;3550895;40;20537;-71
2021/07/26 01:59:37;;;;;;;7.57;5.63;;;;;;;15.69;91.71;96182.06;3548803;40;20495;-73
2021/07/26 02:02:05;;;;;;;11.90;6.10;;;;;;;15.41;93.25;96179.41;3550686;40;20800;-72
2021/07/26 02:04:33;;;;;;;10.10;5.90;;;;;;;15.50;92.43;96181.16;3554012;40;20897;-73
2021/07/26 02:07:01;;;;;;;11.80;6.20;;;;;;;15.27;93.65;96182.50;3551775;40;20514;-72
2021/07/26 02:09:29;;;;;;;8.10;5.27;;;;;;;15.42;93.06;96181.88;3551940;40;20439;-72
2021/07/26 02:11:58;;;;;;;9.20;5.70;;;;;;;15.44;92.97;96184.38;3551918;40;20732;-72
2021/07/26 02:14:26;;;;;;;11.17;6.20;;;;;;;15.44;92.24;96181.75;3553023;40;20455;-72
2021/07/26 02:16:54;;;;;;;18.97;5.50;;;;;;;15.46;92.03;96182.44;3547546;40;20440;-71
2021/07/26 02:19:22;;;;;;;15.87;4.83;;;;;;;15.59;91.53;96193.50;3552444;40;20443;-73
2021/07/26 02:21:51;;;;;;;13.87;5.50;;;;;;;15.61;91.14;96191.53;3551997;40;20553;-71
2021/07/26 02:24:19;;;;;;;8.60;4.30;;;;;;;15.55;91.69;96200.03;3551657;40;20486;-71
2021/07/26 02:26:47;;;;;;;9.97;5.03;;;;;;;15.52;91.60;96208.22;3552178;40;21174;-72
2021/07/26 02:29:16;;;;;;;13.00;5.73;;;;;;;15.56;91.58;96209.63;3552961;40;20746;-72
2021/07/26 02:31:44;;;;;;;11.90;5.80;;;;;;;15.63;91.33;96207.22;3552467;40;20464;-72
2021/07/26 02:34:13;;;;;;;11.70;5.27;;;;;;;15.60;91.34;96199.59;3550895;40;20767;-72
2021/07/26 02:36:40;;;;;;;17.67;6.67;;;;;;;15.66;91.22;96199.03;3552240;40;20944;-73
2021/07/26 02:39:09;;;;;;;9.50;6.30;;;;;;;15.65;91.14;96194.72;3550414;40;20756;-72
2021/07/26 02:41:36;;;;;;;10.63;5.70;;;;;;;15.52;91.69;96194.22;3551760;40;20475;-72
2021/07/26 02:44:05;;;;;;;11.67;5.90;;;;;;;15.66;91.57;96203.44;3551450;40;20832;-72
2021/07/26 02:46:34;;;;;;;9.73;6.33;;;;;;;15.72;90.66;96202.88;3545471;40;20811;-73
2021/07/26 02:49:02;;;;;;;8.80;5.93;;;;;;;15.66;90.87;96203.44;3547053;40;20432;-73
2021/07/26 02:51:30;;;;;;;8.47;5.53;;;;;;;15.69;90.88;96208.44;3551524;40;20746;-73
2021/07/26 02:53:58;;;;;;;8.50;5.33;;;;;;;15.66;90.38;96209.59;3552031;40;20692;-72
2021/07/26 02:56:25;;;;;;;8.33;6.00;;;;;;;15.56;91.26;96208.78;3551931;40;20495;-72
2021/07/26 02:58:54;;;;;;;9.83;5.70;;;;;;;15.67;90.28;96208.59;3551834;40;20747;-73
2021/07/26 03:01:21;;;;;;;6.50;4.90;;;;;;;15.66;89.84;96204.31;3547126;40;20791;-71
2021/07/26 03:03:51;;;;;;;15.90;5.40;;;;;;;15.73;89.66;96213.31;3550373;40;20466;-75
2021/07/26 03:06:21;;;;;;;17.50;5.93;;;;;;;15.74;89.32;96212.34;3552033;40;20490;-75
2021/07/26 03:08:49;;;;;;;8.60;5.50;;;;;;;15.60;89.98;96218.91;3552453;40;20467;-74
2021/07/26 03:11:17;;;;;;;8.40;5.30;;;;;;;15.63;89.96;96213.31;3550200;40;20474;-73
2021/07/26 03:13:45;;;;;;;12.77;5.90;;;;;;;15.63;89.79;96218.59;3552635;40;20444;-72
2021/07/26 03:16:15;;;;;;;5.93;4.43;;;;;;;15.54;90.07;96224.78;3550876;40;20475;-71
2021/07/26 03:18:43;;;;;;;10.73;5.17;;;;;;;15.56;90.09;96212.28;3551924;40;20758;-72
2021/07/26 03:21:17;;;;;;;6.77;4.50;;;;;;;15.73;89.33;96218.59;3551912;40;20516;-72
2021/07/26 03:23:45;;;;;;;17.93;5.87;;;;;;;15.65;89.70;96222.91;3546011;40;20821;-72
2021/07/26 03:26:13;;;;;;;8.03;4.97;;;;;;;15.64;90.17;96227.34;3552276;40;20470;-71
2021/07/26 03:28:42;;;;;;;8.53;4.60;;;;;;;15.70;89.37;96226.78;3549210;40;20443;-74
2021/07/26 03:31:10;;;;;;;12.03;5.07;;;;;;;15.71;88.91;96215.25;3549496;40;20486;-72
2021/07/26 03:33:38;;;;;;;10.17;4.73;;;;;;;15.73;88.97;96225.69;3552331;40;20454;-73
2021/07/26 03:36:06;;;;;;;11.13;4.77;;;;;;;15.71;89.09;96223.16;3550171;40;20900;-72
2021/07/26 03:38:36;;;;;;;15.87;5.23;;;;;;;15.67;89.55;96221.78;3550302;40;20447;-72
2021/07/26 03:41:04;;;;;;;18.37;5.37;;;;;;;15.54;89.75;96227.41;3548763;40;20498;-73
2021/07/26 03:43:32;;;;;;;16.13;4.87;;;;;;;15.53;89.93;96241.56;3549866;40;20467;-74
2021/07/26 03:46:00;;;;;;;9.33;4.37;;;;;;;15.56;89.98;96230.75;3552552;40;20463;-72
2021/07/26 03:48:28;;;;;;;7.87;4.30;;;;;;;15.59;89.47;96224.34;3550169;40;20959;-74
2021/07/26 03:50:55;;;;;;;18.43;4.83;;;;;;;15.50;90.13;96228.66;3550607;40;20573;-73
2021/07/26 03:53:23;;;;;;;14.27;5.47;;;;;;;15.37;90.80;96231.63;3551808;40;20860;-72
2021/07/26 03:55:53;;;;;;;10.27;5.10;;;;;;;15.47;90.12;96233.41;3552311;40;20547;-72
2021/07/26 03:58:21;;;;;;;19.37;4.80;;;;;;;15.47;89.83;96236.88;3550869;40;20896;-71
2021/07/26 04:00:49;;;;;;;11.73;4.90;;;;;;;15.52;89.69;96236.44;3550948;40;20540;-72
2021/07/26 04:03:22;;;;;;;23.83;5.97;;;;;;;15.48;89.39;96224.50;3552390;40;20812;-73
2021/07/26 04:05:55;;;;;;;16.37;4.77;;;;;;;15.50;89.42;96220.75;3550086;40;20716;-71
2021/07/26 04:08:25;;;;;;;7.53;4.63;;;;;;;15.50;88.99;96214.63;3551777;40;20524;-74
2021/07/26 04:11:02;;;;;;;10.77;5.13;;;;;;;15.57;89.35;96216.56;3551919;40;21098;-73
2021/07/26 04:13:32;;;;;;;15.30;5.00;;;;;;;15.59;88.75;96219.88;3550885;40;20473;-72
2021/07/26 04:16:00;;;;;;;8.40;5.03;;;;;;;15.60;89.15;96212.78;3550089;40;20774;-73
2021/07/26 04:18:28;;;;;;;9.30;4.73;;;;;;;15.49;89.43;96218.28;3551336;40;20474;-73
2021/07/26 04:20:56;;;;;;;9.73;5.50;;;;;;;15.53;89.39;96209.09;3553749;40;20861;-75
2021/07/26 04:23:24;;;;;;;12.53;5.17;;;;;;;15.41;89.48;96216.34;3555162;40;20536;-75
2021/07/26 04:25:53;;;;;;;8.00;5.40;;;;;;;15.35;89.89;96215.13;3552062;40;20843;-75
2021/07/26 04:28:22;;;;;;;12.53;5.07;;;;;;;15.28;89.73;96208.75;3553259;40;20528;-75
2021/07/26 04:30:50;;;;;;;8.30;4.90;;;;;;;15.28;89.47;96210.56;3550817;40;20815;-75
2021/07/26 04:33:18;;;;;;;20.40;5.10;;;;;;;15.32;89.82;96211.94;3552407;40;20929;-75
2021/07/26 04:35:46;;;;;;;7.30;4.27;;;;;;;15.45;89.10;96201.91;3547592;40;20542;-75
2021/07/26 04:38:14;;;;;;;20.03;5.40;;;;;;;15.52;89.21;96207.41;3552184;40;20526;-75
2021/07/26 04:40:41;;;;;;;7.80;4.30;;;;;;;15.46;89.39;96213.28;3550875;40;20459;-74
2021/07/26 04:43:09;;;;;;;8.30;4.70;;;;;;;15.29;89.41;96217.50;3550698;40;20464;-75
2021/07/26 04:45:40;;;;;;;7.80;4.70;;;;;;;15.22;89.66;96212.78;3560499;40;20462;-77
2021/07/26 04:48:10;;;;;;;9.90;4.97;;;;;;;15.13;90.86;96218.94;3557782;40;20565;-76
2021/07/26 04:50:38;;;;;;;8.33;4.70;;;;;;;15.14;90.88;96225.03;3553166;40;20498;-76
2021/07/26 04:53:06;;;;;;;11.83;5.03;;;;;;;15.15;90.80;96224.91;3552122;40;20779;-76
2021/07/26 04:55:34;;;;;;;14.03;5.10;;;;;;;15.35;89.93;96230.13;3554722;40;20930;-76
2021/07/26 04:58:04;;;;;;;8.80;4.70;;;;;;;15.41;89.61;96234.81;3551855;40;20479;-76
2021/07/26 05:00:31;;;;;;;10.83;5.27;;;;;;;15.43;89.64;96240.78;3555034;40;20471;-76
2021/07/26 05:03:01;;;;;;;21.20;6.20;;;;;;;15.65;88.37;96238.75;3554896;40;20452;-76
2021/07/26 05:05:29;;;;;;;16.57;5.63;;;;;;;15.72;88.29;96239.81;3551802;40;20885;-75
2021/07/26 05:07:56;;;;;;;13.20;6.60;;;;;;;15.70;88.65;96239.13;3551882;40;20479;-75
2021/07/26 05:10:24;;;;;;;11.63;7.47;;;;;;;15.65;88.37;96247.50;3553119;40;20677;-75
2021/07/26 05:12:52;;;;;;;17.33;6.33;;;;;;;15.73;88.77;96254.72;3551836;40;20528;-75
2021/07/26 05:15:21;;;;;;;14.03;6.53;;;;;;;15.93;87.27;96245.72;3550750;40;20911;-75
2021/07/26 05:17:48;;;;;;;12.73;6.10;;;;;;;15.82;88.38;96253.84;3559979;40;20713;-75
2021/07/26 05:20:18;;;;;;;9.60;5.20;;;;;;;16.06;86.96;96242.75;3550333;40;20455;-75
2021/07/26 05:22:47;;;;;;;17.63;4.90;;;;;;;16.28;86.02;96254.69;3552402;40;20840;-74
2021/07/26 05:25:16;;;;;;;70.40;40.07;;;;;;;16.39;86.71;96259.78;3555849;40;20486;-74
2021/07/26 05:27:44;;;;;;;11.50;6.73;;;;;;;16.55;86.93;96260.91;3551365;40;20470;-73
2021/07/26 05:30:13;;;;;;;21.87;6.30;;;;;;;16.79;85.44;96262.94;3550429;40;20471;-75
2021/07/26 05:32:41;;;;;;;14.43;6.40;;;;;;;16.98;84.46;96265.44;3551498;40;20894;-73
2021/07/26 05:35:10;;;;;;;14.70;6.37;;;;;;;17.15;84.08;96261.13;3554288;40;20567;-73
2021/07/26 05:37:39;;;;;;;10.73;4.73;;;;;;;17.00;84.26;96260.84;3557537;40;20463;-73
2021/07/26 05:40:08;;;;;;;17.53;5.40;;;;;;;17.34;82.95;96265.34;3550758;40;21104;-73
2021/07/26 05:42:36;;;;;;;16.53;5.90;;;;;;;17.32;82.51;96261.22;3551358;40;20436;-74
2021/07/26 05:45:05;;;;;;;11.63;5.33;;;;;;;17.38;82.19;96260.59;3549013;40;20983;-75
2021/07/26 05:47:33;;;;;;;15.97;5.07;;;;;;;17.36;82.60;96265.22;3553548;40;20803;-73
2021/07/26 05:50:03;;;;;;;11.70;4.77;;;;;;;17.38;81.38;96255.28;3551829;40;20911;-74
2021/07/26 05:52:31;;;;;;;10.50;4.40;;;;;;;17.39;81.87;96264.91;3551627;40;21216;-74
2021/07/26 05:55:00;;;;;;;11.70;4.50;;;;;;;17.23;82.35;96254.19;3551658;40;21107;-74
2021/07/26 05:57:32;;;;;;;9.23;4.07;;;;;;;17.33;82.44;96257.59;3548519;40;20544;-72
2021/07/26 06:00:07;;;;;;;9.33;4.50;;;;;;;17.72;80.63;96257.97;3547163;40;20561;-73
2021/07/26 06:02:35;;;;;;;12.93;4.80;;;;;;;17.77;80.26;96255.66;3548894;40;20703;-73
2021/07/26 06:05:03;;;;;;;7.90;4.43;;;;;;;18.14;78.70;96259.00;3551481;40;20918;-73
2021/07/26 06:07:31;;;;;;;8.80;4.13;;;;;;;18.44;78.07;96259.41;3551229;40;20693;-73
2021/07/26 06:10:01;;;;;;;6.83;4.17;;;;;;;18.54;77.71;96257.44;3549733;40;20503;-72
2021/07/26 06:12:29;;;;;;;7.03;3.77;;;;;;;18.54;76.23;96257.44;3555215;40;20859;-74
2021/07/26 06:14:57;;;;;;;7.87;4.67;;;;;;;18.64;76.98;96254.63;3550510;40;20774;-75
2021/07/26 06:17:25;;;;;;;10.07;4.13;;;;;;;18.92;75.46;96261.31;3550689;40;20869;-74
2021/07/26 06:19:53;;;;;;;6.20;4.27;;;;;;;18.99;75.55;96260.66;3548085;40;20561;-74
2021/07/26 06:22:21;;;;;;;7.90;4.23;;;;;;;19.07;75.20;96264.16;3548831;40;20514;-73
2021/07/26 06:24:49;;;;;;;6.30;3.40;;;;;;;19.24;73.97;96264.13;3551335;40;20925;-73
2021/07/26 06:27:20;;;;;;;6.50;3.37;;;;;;;19.29;73.98;96267.94;3552912;40;20525;-73
2021/07/26 06:29:52;;;;;;;7.53;4.10;;;;;;;19.32;73.98;96266.75;3551678;40;20799;-73
2021/07/26 06:32:20;;;;;;;7.10;3.57;;;;;;;19.44;73.54;96268.06;3552525;40;20435;-74
2021/07/26 06:34:49;;;;;;;5.47;3.60;;;;;;;19.58;73.04;96281.66;3551191;40;20462;-75
2021/07/26 06:37:17;;;;;;;5.43;3.40;;;;;;;19.61;72.62;96274.19;3552996;40;20473;-75
2021/07/26 06:39:44;;;;;;;5.60;3.47;;;;;;;19.35;74.57;96277.06;3546037;40;20809;-73
2021/07/26 06:42:18;;;;;;;10.87;4.00;;;;;;;19.82;71.01;96263.03;3547598;40;20918;-74
2021/07/26 06:44:47;;;;;;;5.77;2.93;;;;;;;19.73;71.40;96264.06;3547066;40;20708;-73
2021/07/26 06:47:17;;;;;;;9.30;3.40;;;;;;;20.02;70.79;96273.25;3557429;40;21038;-74
2021/07/26 06:49:45;;;;;;;6.93;3.60;;;;;;;20.32;70.00;96274.28;3550259;40;20541;-74
2021/07/26 06:52:12;;;;;;;7.70;2.93;;;;;;;20.67;68.02;96270.25;3550620;40;20530;-75
2021/07/26 06:54:40;;;;;;;7.37;3.33;;;;;;;20.77;67.94;96274.53;3551875;40;20451;-73
2021/07/26 06:57:08;;;;;;;7.87;2.90;;;;;;;20.55;67.73;96275.13;3550493;40;20796;-74
2021/07/26 06:59:36;;;;;;;8.73;2.93;;;;;;;20.68;68.91;96271.09;3550496;40;20458;-73
2021/07/26 07:02:05;;;;;;;6.20;3.27;;;;;;;21.10;68.00;96269.78;3551964;40;20771;-73
2021/07/26 07:04:33;;;;;;;12.17;3.67;;;;;;;21.08;66.23;96264.63;3550956;40;20854;-73
2021/07/26 07:07:05;;;;;;;6.43;3.03;;;;;;;21.05;66.20;96264.16;3548936;40;20470;-73
2021/07/26 07:09:33;;;;;;;6.10;3.90;;;;;;;20.97;66.07;96267.72;3550959;40;20665;-73
2021/07/26 07:12:01;;;;;;;3.53;2.90;;;;;;;21.26;65.07;96271.47;3551389;40;20528;-73
2021/07/26 07:14:29;;;;;;;9.77;3.53;;;;;;;21.57;63.93;96270.56;3551589;40;20545;-73
2021/07/26 07:16:58;;;;;;;5.77;3.73;;;;;;;21.47;66.12;96268.97;3550688;40;20859;-75
2021/07/26 07:19:28;;;;;;;6.57;3.30;;;;;;;21.53;61.86;96262.91;3551975;40;20683;-74
2021/07/26 07:21:56;;;;;;;4.50;2.93;;;;;;;21.08;60.04;96272.63;3549062;40;20487;-73
2021/07/26 07:24:23;;;;;;;2.97;1.90;;;;;;;20.90;58.81;96277.44;3549708;40;21109;-73
2021/07/26 07:26:51;;;;;;;8.90;2.70;;;;;;;22.00;57.63;96273.41;3550170;40;20466;-73
2021/07/26 07:29:19;;;;;;;3.40;2.90;;;;;;;21.93;56.32;96267.97;3549783;40;20454;-74
2021/07/26 07:31:47;;;;;;;5.63;3.30;;;;;;;21.72;58.37;96271.41;3550227;40;20455;-74
2021/07/26 07:34:16;;;;;;;5.33;3.37;;;;;;;21.96;57.58;96272.13;3549823;40;20767;-74
2021/07/26 07:36:46;;;;;;;5.30;2.83;;;;;;;22.62;54.91;96272.97;3549501;40;20962;-73
2021/07/26 07:39:15;;;;;;;5.53;2.80;;;;;;;23.38;53.73;96285.78;3551372;40;21131;-74
2021/07/26 07:41:43;;;;;;;7.50;2.90;;;;;;;22.85;55.00;96280.78;3545452;40;20432;-74
2021/07/26 07:44:11;;;;;;;7.60;2.50;;;;;;;22.99;54.29;96284.44;3551657;40;20458;-74
2021/07/26 07:46:39;;;;;;;3.60;2.47;;;;;;;23.55;53.38;96289.03;3549857;40;20529;-74
2021/07/26 07:49:08;;;;;;;4.70;2.67;;;;;;;23.76;53.28;96284.66;3551414;40;20445;-74
2021/07/26 07:51:36;;;;;;;5.07;2.73;;;;;;;24.15;51.01;96286.75;3550852;40;20844;-75
2021/07/26 07:54:06;;;;;;;6.30;3.07;;;;;;;23.84;50.62;96287.19;3549847;40;20793;-76
2021/07/26 07:56:34;;;;;;;9.03;3.43;;;;;;;23.47;52.34;96292.66;3545392;40;20859;-73
2021/07/26 07:59:05;;;;;;;4.47;2.83;;;;;;;23.50;52.47;96296.78;3550217;40;20820;-73
2021/07/26 08:01:33;;;;;;;3.70;3.20;;;;;;;23.59;54.10;96306.31;3548515;40;20466;-74
2021/07/26 08:04:02;;;;;;;6.17;3.10;;;;;;;22.23;58.16;96300.78;3551764;40;20654;-75
2021/07/26 08:06:30;;;;;;;3.30;2.63;;;;;;;21.89;59.74;96301.34;3549373;40;20853;-73
2021/07/26 08:08:58;;;;;;;8.27;3.43;;;;;;;21.82;60.43;96309.25;3549626;40;20499;-75
2021/07/26 08:11:27;;;;;;;4.93;3.13;;;;;;;22.94;56.77;96302.03;3549078;40;20847;-75
2021/07/26 08:13:55;;;;;;;5.30;2.87;;;;;;;22.69;58.59;96299.72;3545703;40;20444;-73
2021/07/26 08:16:23;;;;;;;9.30;2.80;;;;;;;22.81;55.98;96303.53;3551396;40;21145;-74
2021/07/26 08:18:57;;;;;;;5.07;3.00;;;;;;;22.86;55.33;96300.31;3546127;40;20440;-75
2021/07/26 08:21:27;;;;;;;5.80;2.40;;;;;;;22.93;54.45;96305.69;3548677;40;20798;-72
2021/07/26 08:23:57;;;;;;;13.33;3.17;;;;;;;22.94;55.88;96313.53;3549945;40;20671;-72
2021/07/26 08:26:28;;;;;;;7.80;2.93;;;;;;;22.98;54.33;96308.66;3551441;40;20807;-74
2021/07/26 08:28:56;;;;;;;9.53;2.93;;;;;;;22.76;55.77;96302.44;3546738;40;20440;-75
2021/07/26 08:31:24;;;;;;;4.00;2.60;;;;;;;22.91;55.21;96305.88;3545204;40;21138;-74
2021/07/26 08:33:52;;;;;;;17.30;10.17;;;;;;;23.45;52.69;96300.03;3545447;40;20479;-73
2021/07/26 08:36:19;;;;;;;8.17;3.80;;;;;;;23.51;52.85;96305.66;3549430;40;20964;-74
2021/07/26 08:38:47;;;;;;;8.10;2.77;;;;;;;23.41;52.90;96305.97;3550539;40;20459;-73
2021/07/26 08:41:16;;;;;;;5.17;3.27;;;;;;;23.47;51.82;96307.88;3550500;40;20802;-73
2021/07/26 08:43:45;;;;;;;4.70;2.60;;;;;;;23.35;52.43;96307.56;3549950;40;21096;-73
2021/07/26 08:46:16;;;;;;;4.80;3.00;;;;;;;24.06;51.13;96309.31;3549118;40;20573;-74
2021/07/26 08:48:45;;;;;;;7.63;2.87;;;;;;;;;;3549672;40;20837;-73
2021/07/26 08:51:17;;;;;;;4.93;3.20;;;;;;;24.05;53.23;96305.00;3550152;40;20559;-73
2021/07/26 08:53:46;;;;;;;4.07;2.60;;;;;;;23.61;55.04;96308.81;3551611;40;20448;-74
2021/07/26 08:56:16;;;;;;;7.27;2.87;;;;;;;23.54;54.49;96311.44;3546216;40;21007;-74
2021/07/26 08:58:45;;;;;;;4.17;2.67;;;;;;;23.20;53.50;96304.97;3546607;40;20732;-74
2021/07/26 09:01:15;;;;;;;3.20;2.50;;;;;;;24.15;52.32;96292.09;3546512;40;20477;-74
2021/07/26 09:03:44;;;;;;;5.77;3.40;;;;;;;25.00;51.18;96292.59;3551632;40;20853;-75
2021/07/26 09:06:12;;;;;;;5.50;2.70;;;;;;;23.27;53.46;96305.03;3553373;40;20485;-74
2021/07/26 09:08:40;;;;;;;7.90;3.73;;;;;;;23.95;52.98;96293.81;3552889;40;20475;-75
2021/07/26 09:11:09;;;;;;;5.90;3.00;;;;;;;25.80;49.48;96291.81;3552125;40;20463;-73
2021/07/26 09:13:39;;;;;;;4.87;2.87;;;;;;;25.24;50.60;96293.06;3552292;40;20834;-74
2021/07/26 09:16:19;;;;;;;7.47;2.70;;;;;;;24.69;50.15;96292.34;3552296;40;20473;-74
2021/07/26 09:19:02;;;;;;;13.93;5.20;;;;;;;24.05;51.30;96299.63;3552855;40;20850;-75
2021/07/26 09:21:50;;;;;;;5.47;2.40;;;;;;;23.92;50.32;96299.59;3552080;40;20493;-73
2021/07/26 09:24:25;;;;;;;3.73;2.70;;;;;;;24.01;50.89;96290.34;3549073;40;20549;-77
2021/07/26 09:26:53;;;;;;;5.63;2.93;;;;;;;24.20;51.51;96292.31;3549526;40;21119;-76
2021/07/26 09:29:28;;;;;;;4.27;2.40;;;;;;;25.24;47.85;96285.03;3546414;40;20460;-77
2021/07/26 09:32:03;;;;;;;7.30;3.00;;;;;;;26.58;47.67;96280.22;3549143;40;20463;-77
2021/07/26 09:34:31;;;;;;;7.43;2.70;;;;;;;26.28;46.07;96278.09;3547061;40;20462;-77
2021/07/26 09:37:00;;;;;;;3.43;2.47;;;;;;;27.46;46.05;96284.06;3547066;40;20681;-76
2021/07/26 09:39:29;;;;;;;3.77;2.70;;;;;;;26.14;45.47;96277.31;3552324;40;20468;-73
2021/07/26 09:41:59;;;;;;;5.73;2.43;;;;;;;25.18;49.37;96275.13;3550790;40;20472;-74
2021/07/26 09:44:28;;;;;;;6.87;2.50;;;;;;;26.24;48.27;96272.31;3551543;40;20681;-75
2021/07/26 09:47:21;;;;;;;11.60;2.63;;;;;;;27.26;46.02;96263.53;3551284;40;20954;-75
2021/07/26 09:49:50;;;;;;;3.40;2.43;;;;;;;27.95;44.07;96274.31;3549736;40;20808;-74
2021/07/26 09:52:21;;;;;;;8.23;2.73;;;;;;;27.85;44.00;96271.28;3552688;40;20510;-74
2021/07/26 09:54:52;;;;;;;8.03;3.27;;;;;;;28.05;45.81;96266.56;3557793;40;20917;-75
2021/07/26 09:57:23;;;;;;;9.60;2.87;;;;;;;27.13;46.36;96263.59;3552755;40;20632;-74
2021/07/26 09:59:51;;;;;;;4.13;2.40;;;;;;;27.01;45.66;96261.63;3551274;40;20743;-75
2021/07/26 10:02:23;;;;;;;8.50;2.87;;;;;;;27.90;44.78;96258.84;3552844;40;20783;-74
2021/07/26 10:04:52;;;;;;;6.53;2.93;;;;;;;26.19;46.58;96258.72;3554805;40;20859;-73
2021/07/26 10:07:21;;;;;;;4.60;2.37;;;;;;;25.11;48.55;96259.03;3552695;40;21217;-74
2021/07/26 10:09:49;;;;;;;6.57;2.33;;;;;;;25.16;48.84;96253.88;3552424;40;20854;-74
2021/07/26 10:12:18;;;;;;;3.97;2.50;;;;;;;26.21;47.24;96251.28;3550051;40;20474;-74
2021/07/26 10:14:49;;;;;;;5.50;2.97;;;;;;;26.28;46.59;96258.47;3551481;40;20816;-75
2021/07/26 10:17:18;;;;;;;5.33;2.67;;;;;;;25.67;46.32;96259.66;3553610;40;20436;-74
2021/07/26 10:19:47;;;;;;;3.83;2.53;;;;;;;25.48;47.19;96256.78;3552749;40;20704;-74
2021/07/26 10:22:24;;;;;;;6.70;4.50;;;;;;;25.11;49.28;96256.38;3552168;40;20443;-75
2021/07/26 10:24:58;;;;;;;5.73;2.37;;;;;;;24.66;49.72;96259.59;3547869;40;20533;-74
2021/07/26 10:27:31;;;;;;;3.63;2.50;;;;;;;24.64;50.13;96263.50;3553350;40;20829;-74
2021/07/26 10:30:00;;;;;;;4.30;2.73;;;;;;;24.46;49.76;96262.19;3554651;40;20524;-74
2021/07/26 10:32:39;;;;;;;6.30;2.33;;;;;;;24.76;49.47;96251.16;3554552;40;20716;-73
2021/07/26 10:35:39;;;;;;;6.40;3.00;;;;;;;24.44;55.29;96250.84;3552774;40;20463;-73
2021/07/26 10:38:11;;;;;;;7.17;3.13;;;;;;;23.79;56.69;96245.00;3550449;40;20987;-76
2021/07/26 10:40:40;;;;;;;22.90;5.20;;;;;;;23.69;63.76;96258.69;3549757;40;20847;-77
2021/07/26 10:43:12;;;;;;;8.73;4.10;;;;;;;22.73;69.31;96263.63;3552553;40;20837;-73
2021/07/26 10:46:03;;;;;;;10.80;3.50;;;;;;;23.03;68.54;96283.06;3552547;40;20933;-74
2021/07/26 10:48:33;;;;;;;7.00;3.80;;;;;;;22.51;70.21;96292.13;3550748;40;20693;-73
2021/07/26 10:51:01;;;;;;;13.83;4.93;;;;;;;21.75;72.05;96276.34;3547957;40;20836;-74
2021/07/26 10:53:59;;;;;;;7.37;4.10;;;;;;;22.93;71.52;96277.16;3551960;40;20826;-76
2021/07/26 10:56:27;;;;;;;5.60;4.30;;;;;;;23.64;70.60;96279.84;3553351;40;20540;-76
2021/07/26 10:59:05;;;;;;;6.63;3.97;;;;;;;23.96;70.77;96266.09;3554690;40;20532;-76
2021/07/26 11:02:01;;;;;;;6.97;4.43;;;;;;;23.99;70.49;96269.19;3549871;40;20470;-75
2021/07/26 11:04:44;;;;;;;7.07;3.53;;;;;;;24.60;69.86;96265.75;3552478;40;20976;-75
2021/07/26 11:07:28;;;;;;;7.20;4.17;;;;;;;26.15;65.97;96264.72;3550422;40;20502;-75
2021/07/26 11:09:58;;;;;;;12.43;4.40;;;;;;;26.58;63.47;96253.38;3552639;40;20474;-74
2021/07/26 11:12:51;;;;;;;7.80;4.00;;;;;;;26.91;62.97;96260.44;3550598;40;20480;-75
2021/07/26 11:15:21;;;;;;;8.00;4.30;;;;;;;26.88;62.20;96250.16;3550752;40;20560;-75
2021/07/26 11:18:35;;;;;;;5.40;3.40;;;;;;;26.53;60.82;96245.97;3550421;40;20470;-75
2021/07/26 11:21:13;;;;;;;4.33;3.40;;;;;;;24.74;63.88;96250.56;3589429;23;20493;-76
2021/07/26 11:23:49;;;;;;;12.20;3.83;;;;;;;24.22;65.69;96263.50;3567946;40;20919;-75
2021/07/26 11:26:28;;;;;;;6.43;3.80;;;;;;;23.97;66.30;96270.38;3568321;40;20453;-75
2021/07/26 11:28:58;;;;;;;4.77;3.83;;;;;;;23.52;68.48;96283.22;3573203;40;20930;-75
2021/07/26 11:31:31;;;;;;;8.67;3.73;;;;;;;23.81;66.98;96277.69;3566109;40;20471;-75
2021/07/26 11:34:12;;;;;;;6.33;3.37;;;;;;;23.33;67.85;96274.88;3565426;40;20430;-75
2021/07/26 11:37:03;;;;;;;6.40;3.37;;;;;;;23.24;67.63;96262.69;3569857;40;20563;-76
2021/07/26 11:39:44;;;;;;;5.00;3.33;;;;;;;23.26;65.02;96266.81;3566858;40;20542;-75
2021/07/26 11:42:16;;;;;;;9.90;3.73;;;;;;;23.90;63.28;96265.03;3559734;40;20486;-75
2021/07/26 11:44:46;;;;;;;8.13;3.80;;;;;;;23.68;64.45;96267.75;3567855;40;20538;-76
2021/07/26 11:47:15;;;;;;;9.23;3.83;;;;;;;23.66;63.38;96269.78;3568080;40;21145;-75